createdAt,value
2017-12-03T00:01:03.131Z,11.40
2017-12-03T00:03:30.671Z,12.82
2017-12-03T00:05:58.962Z,9.68
2017-12-03T00:08:26.510Z,11.30
2017-12-03T00:10:54.809Z,9.88
2017-12-03T00:13:22.350Z,9.30
2017-12-03T00:15:50.632Z,9.77
2017-12-03T00:18:18.173Z,10.80
2017-12-03T00:20:46.456Z,10.60
2017-12-03T00:23:14.760Z,9.38
2017-12-03T00:25:42.282Z,11.57
2017-12-03T00:28:09.826Z,11.50
2017-12-03T00:30:37.352Z,11.60
2017-12-03T00:33:04.875Z,10.05
2017-12-03T00:35:33.184Z,10.82
2017-12-03T00:38:00.705Z,13.13
2017-12-03T00:40:28.247Z,11.07
2017-12-03T00:42:56.562Z,11.10
2017-12-03T00:45:24.868Z,10.40
2017-12-03T00:47:52.398Z,11.70
2017-12-03T00:50:20.706Z,11.52
2017-12-03T00:52:48.224Z,11.80
2017-12-03T00:55:15.789Z,7.18
2017-12-03T00:57:44.074Z,5.05
2017-12-03T01:00:12.357Z,5.93
2017-12-03T01:02:40.659Z,6.62
2017-12-03T01:05:08.179Z,8.38
2017-12-03T01:07:36.486Z,10.60
2017-12-03T01:10:04.006Z,7.82
2017-12-03T01:12:31.543Z,6.93
2017-12-03T01:14:59.067Z,7.20
2017-12-03T01:17:26.606Z,6.97
2017-12-03T01:19:54.890Z,8.05
2017-12-03T01:22:23.242Z,8.35
2017-12-03T01:24:50.763Z,9.40
2017-12-03T01:27:18.302Z,10.30
2017-12-03T01:29:45.828Z,9.38
2017-12-03T01:32:13.367Z,8.10
2017-12-03T01:34:40.913Z,5.70
2017-12-03T01:37:08.449Z,7.37
2017-12-03T01:39:35.971Z,9.00
2017-12-03T01:42:03.515Z,7.25
2017-12-03T01:44:31.035Z,6.20
2017-12-03T01:46:58.590Z,6.95
2017-12-03T01:49:26.116Z,7.53
2017-12-03T01:51:54.406Z,8.38
2017-12-03T01:54:22.711Z,8.07
2017-12-03T01:56:50.235Z,7.75
2017-12-03T01:59:18.546Z,7.65
2017-12-03T02:01:46.067Z,8.35
2017-12-03T02:04:14.384Z,7.40
2017-12-03T02:06:41.910Z,7.70
2017-12-03T02:09:10.213Z,7.25
2017-12-03T02:11:37.741Z,7.03
2017-12-03T02:14:06.054Z,7.45
2017-12-03T02:16:33.565Z,7.47
2017-12-03T02:19:01.101Z,7.30
2017-12-03T02:21:28.613Z,6.40
2017-12-03T02:23:56.939Z,7.20
2017-12-03T02:26:24.541Z,7.57
2017-12-03T02:28:52.830Z,7.60
2017-12-03T02:31:21.134Z,7.68
2017-12-03T02:33:48.653Z,6.25
2017-12-03T02:36:16.962Z,6.75
2017-12-03T02:38:44.487Z,6.82
2017-12-03T02:41:12.021Z,6.57
2017-12-03T02:43:39.563Z,5.80
2017-12-03T02:46:07.099Z,7.57
2017-12-03T02:48:34.626Z,7.57
2017-12-03T02:51:02.161Z,6.53
2017-12-03T02:53:29.686Z,7.72
2017-12-03T02:55:57.230Z,7.15
2017-12-03T02:58:25.518Z,7.55
2017-12-03T03:00:53.061Z,7.47
2017-12-03T03:03:21.341Z,8.25
2017-12-03T03:05:49.626Z,8.20
2017-12-03T03:08:17.939Z,7.15
2017-12-03T03:10:45.457Z,7.05
2017-12-03T03:13:13.765Z,8.30
2017-12-03T03:15:41.290Z,6.40
2017-12-03T03:18:09.599Z,7.25
2017-12-03T03:20:37.112Z,9.05
2017-12-03T03:23:04.646Z,8.15
2017-12-03T03:25:32.170Z,8.30
2017-12-03T03:27:59.707Z,8.20
2017-12-03T03:30:27.991Z,8.68
2017-12-03T03:32:56.289Z,9.18
2017-12-03T03:35:23.818Z,8.90
2017-12-03T03:37:51.353Z,7.90
2017-12-03T03:40:18.869Z,8.85
2017-12-03T03:42:46.434Z,8.60
2017-12-03T03:45:13.959Z,8.50
2017-12-03T03:47:41.497Z,12.82
2017-12-03T03:50:09.016Z,9.15
2017-12-03T03:52:36.562Z,8.50
2017-12-03T03:55:04.882Z,9.10
2017-12-03T03:57:32.414Z,9.40
2017-12-03T03:59:59.938Z,10.40
2017-12-03T04:02:27.477Z,10.13
2017-12-03T04:04:55.003Z,10.13
2017-12-03T04:07:22.542Z,9.95
2017-12-03T04:09:50.067Z,9.25
2017-12-03T04:12:17.611Z,8.88
2017-12-03T04:14:45.902Z,9.45
2017-12-03T04:17:13.451Z,10.20
2017-12-03T04:19:40.980Z,10.02
2017-12-03T04:22:08.522Z,10.93
2017-12-03T04:24:36.044Z,11.25
2017-12-03T04:27:03.595Z,9.20
2017-12-03T04:29:31.110Z,9.20
2017-12-03T04:31:58.646Z,9.50
2017-12-03T04:34:26.938Z,10.10
2017-12-03T04:36:54.483Z,10.15
2017-12-03T04:39:22.764Z,10.13
2017-12-03T04:41:51.075Z,10.00
2017-12-03T04:44:18.604Z,11.82
2017-12-03T04:46:46.889Z,12.07
2017-12-03T04:49:15.199Z,11.85
2017-12-03T04:51:42.717Z,12.20
2017-12-03T04:54:11.027Z,12.40
2017-12-03T04:56:38.554Z,14.23
2017-12-03T04:59:06.862Z,15.18
2017-12-03T05:01:34.393Z,12.70
2017-12-03T05:04:02.704Z,13.15
2017-12-03T05:06:30.262Z,12.35
2017-12-03T05:08:57.801Z,13.15
2017-12-03T05:11:26.094Z,12.15
2017-12-03T05:13:53.639Z,12.80
2017-12-03T05:16:21.171Z,13.60
2017-12-03T05:18:48.714Z,11.80
2017-12-03T05:21:17.003Z,11.80
2017-12-03T05:23:44.547Z,12.43
2017-12-03T05:26:12.070Z,11.15
2017-12-03T05:28:39.606Z,12.10
2017-12-03T05:31:07.898Z,12.07
2017-12-03T05:33:36.201Z,11.27
2017-12-03T05:36:03.725Z,11.75
2017-12-03T05:38:32.034Z,13.65
2017-12-03T05:40:59.557Z,12.70
2017-12-03T05:43:27.114Z,13.13
2017-12-03T05:45:54.679Z,12.48
2017-12-03T05:48:22.202Z,13.02
2017-12-03T05:50:49.725Z,12.27
2017-12-03T05:53:17.262Z,11.75
2017-12-03T05:55:45.554Z,11.00
2017-12-03T05:58:13.118Z,10.93
2017-12-03T06:00:40.640Z,10.52
2017-12-03T06:03:08.161Z,11.63
2017-12-03T06:05:35.701Z,10.52
2017-12-03T06:08:03.231Z,10.82
2017-12-03T06:10:30.774Z,11.05
2017-12-03T06:12:58.294Z,11.77
2017-12-03T06:15:25.878Z,11.20
2017-12-03T06:17:54.165Z,10.30
2017-12-03T06:20:21.701Z,10.98
2017-12-03T06:22:49.230Z,11.57
2017-12-03T06:25:17.535Z,13.02
2017-12-03T06:27:45.072Z,10.65
2017-12-03T06:30:13.386Z,10.95
2017-12-03T06:32:40.910Z,12.43
2017-12-03T06:35:09.190Z,9.05
2017-12-03T06:37:36.730Z,9.82
2017-12-03T06:40:05.022Z,11.38
2017-12-03T06:42:33.327Z,10.38
2017-12-03T06:45:00.850Z,11.40
2017-12-03T06:47:29.242Z,10.82
2017-12-03T06:49:57.530Z,11.10
2017-12-03T06:52:25.080Z,11.48
2017-12-03T06:54:53.365Z,10.75
2017-12-03T06:57:20.913Z,11.02
2017-12-03T06:59:49.197Z,13.25
2017-12-03T07:02:17.497Z,11.80
2017-12-03T07:04:45.017Z,11.40
2017-12-03T07:07:12.557Z,12.73
2017-12-03T07:09:40.082Z,12.00
2017-12-03T07:12:07.618Z,12.20
2017-12-03T07:14:35.153Z,12.85
2017-12-03T07:17:02.674Z,13.02
2017-12-03T07:19:30.215Z,12.60
2017-12-03T07:21:57.729Z,12.25
2017-12-03T07:24:25.295Z,12.07
2017-12-03T07:26:52.822Z,13.05
2017-12-03T07:29:20.367Z,13.57
2017-12-03T07:31:47.894Z,14.30
2017-12-03T07:34:16.207Z,11.98
2017-12-03T07:36:43.734Z,13.80
2017-12-03T07:39:12.042Z,12.23
2017-12-03T07:41:39.574Z,14.35
2017-12-03T07:44:07.892Z,14.70
2017-12-03T07:46:35.419Z,13.62
2017-12-03T07:49:02.966Z,13.23
2017-12-03T07:51:31.262Z,13.75
2017-12-03T07:53:58.806Z,13.80
2017-12-03T07:56:27.090Z,13.98
2017-12-03T07:58:54.634Z,14.75
2017-12-03T08:01:22.927Z,14.63
2017-12-03T08:03:51.239Z,14.00
2017-12-03T08:06:18.762Z,13.90
2017-12-03T08:08:47.062Z,15.80
2017-12-03T08:11:14.584Z,18.00
2017-12-03T08:13:42.146Z,15.48
2017-12-03T08:16:09.674Z,15.65
2017-12-03T08:18:37.194Z,14.68
2017-12-03T08:21:04.789Z,15.68
2017-12-03T08:23:32.345Z,16.80
2017-12-03T08:25:59.882Z,16.35
2017-12-03T08:28:27.411Z,16.80
2017-12-03T08:30:55.717Z,16.85
2017-12-03T08:33:23.237Z,16.30
2017-12-03T08:35:50.773Z,18.25
2017-12-03T08:38:18.298Z,15.40
2017-12-03T08:40:45.837Z,17.02
2017-12-03T08:43:14.125Z,14.87
2017-12-03T08:45:42.455Z,16.27
2017-12-03T08:48:09.973Z,15.88
2017-12-03T08:50:37.501Z,17.00
2017-12-03T08:53:05.046Z,13.65
2017-12-03T08:55:32.578Z,17.08
2017-12-03T08:58:00.126Z,19.37
2017-12-03T09:00:27.654Z,16.02
2017-12-03T09:02:55.965Z,16.70
2017-12-03T09:05:23.490Z,15.60
2017-12-03T09:07:51.806Z,16.52
2017-12-03T09:10:19.330Z,14.23
2017-12-03T09:12:47.633Z,15.43
2017-12-03T09:15:15.150Z,16.30
2017-12-03T09:17:42.694Z,15.07
2017-12-03T09:20:10.217Z,14.32
2017-12-03T09:22:37.738Z,15.57
2017-12-03T09:25:05.282Z,14.98
2017-12-03T09:27:32.809Z,14.57
2017-12-03T09:30:00.354Z,13.05
2017-12-03T09:32:27.879Z,16.27
2017-12-03T09:34:55.426Z,16.05
2017-12-03T09:37:22.950Z,14.98
2017-12-03T09:39:50.499Z,14.13
2017-12-03T09:42:18.029Z,15.55
2017-12-03T09:44:46.349Z,15.27
2017-12-03T09:47:13.873Z,15.07
2017-12-03T09:49:42.182Z,15.60
2017-12-03T09:52:09.716Z,14.15
2017-12-03T09:54:38.026Z,16.40
2017-12-03T09:57:05.551Z,15.73
2017-12-03T09:59:33.854Z,16.00
2017-12-03T10:02:01.382Z,14.20
2017-12-03T10:04:28.921Z,13.60
2017-12-03T10:06:56.448Z,14.40
2017-12-03T10:09:23.994Z,15.90
2017-12-03T10:11:51.518Z,15.43
2017-12-03T10:14:19.072Z,17.02
2017-12-03T10:16:46.602Z,14.40
2017-12-03T10:19:14.147Z,16.65
2017-12-03T10:21:41.673Z,15.25
2017-12-03T10:24:09.982Z,15.02
2017-12-03T10:26:37.515Z,14.45
2017-12-03T10:29:05.823Z,15.65
2017-12-03T10:31:33.345Z,14.27
2017-12-03T10:34:00.906Z,16.98
2017-12-03T10:36:28.446Z,13.80
2017-12-03T10:38:55.970Z,13.60
2017-12-03T10:41:23.521Z,16.75
2017-12-03T10:43:51.051Z,15.13
2017-12-03T10:46:18.601Z,12.35
2017-12-03T10:48:46.125Z,13.50
2017-12-03T10:51:13.670Z,17.40
2017-12-03T10:53:41.245Z,16.40
2017-12-03T10:56:08.780Z,14.75
2017-12-03T10:58:37.063Z,13.35
2017-12-03T11:01:04.616Z,14.02
2017-12-03T11:03:32.944Z,16.75
2017-12-03T11:06:00.485Z,14.82
2017-12-03T11:08:28.011Z,14.80
2017-12-03T11:10:55.594Z,12.70
2017-12-03T11:13:23.127Z,13.80
2017-12-03T11:15:51.414Z,13.30
2017-12-03T11:18:19.721Z,13.85
2017-12-03T11:20:47.241Z,20.40
2017-12-03T11:23:15.556Z,14.68
2017-12-03T11:25:43.088Z,14.05
2017-12-03T11:28:11.392Z,13.77
2017-12-03T11:30:38.923Z,12.95
2017-12-03T11:33:07.224Z,13.50
2017-12-03T11:35:34.747Z,12.88
2017-12-03T11:38:02.291Z,12.73
2017-12-03T11:40:29.819Z,14.95
2017-12-03T11:42:57.375Z,13.95
2017-12-03T11:45:24.898Z,13.68
2017-12-03T11:47:53.211Z,14.90
2017-12-03T11:50:20.734Z,14.25
2017-12-03T11:52:48.280Z,14.32
2017-12-03T11:55:15.815Z,13.23
2017-12-03T11:57:43.354Z,13.07
2017-12-03T12:00:10.898Z,14.95
2017-12-03T12:02:38.428Z,12.80
2017-12-03T12:05:05.970Z,15.88
2017-12-03T12:07:33.494Z,13.95
2017-12-03T12:10:01.033Z,14.13
2017-12-03T12:12:28.569Z,13.82
2017-12-03T12:14:56.105Z,13.30
2017-12-03T12:17:23.685Z,13.65
2017-12-03T12:19:51.226Z,12.32
2017-12-03T12:22:18.756Z,13.50
2017-12-03T12:24:46.306Z,11.73
2017-12-03T12:27:13.830Z,13.50
2017-12-03T12:29:41.375Z,11.85
2017-12-03T12:32:08.902Z,13.02
2017-12-03T12:34:36.439Z,14.35
2017-12-03T12:37:04.732Z,14.35
2017-12-03T12:39:32.320Z,13.10
2017-12-03T12:41:59.839Z,13.35
2017-12-03T12:44:27.362Z,14.15
2017-12-03T12:46:54.907Z,14.70
2017-12-03T12:49:22.436Z,13.15
2017-12-03T12:51:49.979Z,13.45
2017-12-03T12:54:18.268Z,13.98
2017-12-03T12:56:45.811Z,16.10
2017-12-03T12:59:14.093Z,12.23
2017-12-03T13:01:42.402Z,15.60
2017-12-03T13:04:09.921Z,13.48
2017-12-03T13:06:38.240Z,13.82
2017-12-03T13:09:05.757Z,15.85
2017-12-03T13:11:34.067Z,15.13
2017-12-03T13:14:01.592Z,15.43
2017-12-03T13:16:29.947Z,15.73
2017-12-03T13:18:57.463Z,15.40
2017-12-03T13:21:24.998Z,16.60
2017-12-03T13:23:53.306Z,15.38
2017-12-03T13:26:20.830Z,14.48
2017-12-03T13:28:49.132Z,13.77
2017-12-03T13:31:16.653Z,15.82
2017-12-03T13:33:44.202Z,12.90
2017-12-03T13:36:11.726Z,13.80
2017-12-03T13:38:39.260Z,16.25
2017-12-03T13:41:07.551Z,15.18
2017-12-03T13:43:35.102Z,12.30
2017-12-03T13:46:03.508Z,12.77
2017-12-03T13:48:31.055Z,15.38
2017-12-03T13:50:58.581Z,12.98
2017-12-03T13:53:27.730Z,13.32
2017-12-03T13:55:55.255Z,13.70
2017-12-03T13:58:23.580Z,14.85
2017-12-03T14:00:51.104Z,14.20
2017-12-03T14:03:18.625Z,12.75
2017-12-03T14:05:46.170Z,13.02
2017-12-03T14:08:14.466Z,13.13
2017-12-03T14:10:42.010Z,12.00
2017-12-03T14:13:09.534Z,14.10
2017-12-03T14:15:37.084Z,14.55
2017-12-03T14:18:04.611Z,12.80
2017-12-03T14:20:32.160Z,13.32
2017-12-03T14:22:59.687Z,13.52
2017-12-03T14:25:27.256Z,12.35
2017-12-03T14:27:54.781Z,13.65
2017-12-03T14:30:22.332Z,16.05
2017-12-03T14:32:50.655Z,15.02
2017-12-03T14:35:18.199Z,13.50
2017-12-03T14:37:45.721Z,14.70
2017-12-03T14:40:14.030Z,13.57
2017-12-03T14:42:41.555Z,15.00
2017-12-03T14:45:09.096Z,13.48
2017-12-03T14:47:39.650Z,13.95
2017-12-03T14:50:07.966Z,14.70
2017-12-03T14:52:35.496Z,13.90
2017-12-03T14:55:03.803Z,14.57
2017-12-03T14:57:31.321Z,13.98
2017-12-03T14:59:58.899Z,14.25
2017-12-03T15:02:27.193Z,14.07
2017-12-03T15:04:54.722Z,14.48
2017-12-03T15:07:22.266Z,15.95
2017-12-03T15:09:49.795Z,13.40
2017-12-03T15:12:17.342Z,14.32
2017-12-03T15:14:44.870Z,14.40
2017-12-03T15:17:13.178Z,16.52
2017-12-03T15:19:40.711Z,13.82
2017-12-03T15:22:09.023Z,13.40
2017-12-03T15:24:36.551Z,14.18
2017-12-03T15:27:04.882Z,13.25
2017-12-03T15:29:32.397Z,14.30
2017-12-03T15:32:00.690Z,14.40
2017-12-03T15:34:28.238Z,14.15
2017-12-03T15:36:56.536Z,14.18
2017-12-03T15:39:24.082Z,14.18
2017-12-03T15:41:51.626Z,14.30
2017-12-03T15:44:19.934Z,14.20
2017-12-03T15:46:47.450Z,12.57
2017-12-03T15:49:14.993Z,12.45
2017-12-03T15:51:42.522Z,12.15
2017-12-03T15:54:10.066Z,13.68
2017-12-03T15:56:37.598Z,12.60
2017-12-03T15:59:05.139Z,13.82
2017-12-03T16:01:32.670Z,13.40
2017-12-03T16:04:00.205Z,13.70
2017-12-03T16:06:28.489Z,13.65
2017-12-03T16:08:56.039Z,14.55
2017-12-03T16:11:24.335Z,14.05
2017-12-03T16:13:51.906Z,13.95
2017-12-03T16:16:19.429Z,11.75
2017-12-03T16:18:47.733Z,12.48
2017-12-03T16:21:15.268Z,14.07
2017-12-03T16:23:43.574Z,17.20
2017-12-03T16:26:11.099Z,13.07
2017-12-03T16:28:39.410Z,12.02
2017-12-03T16:31:06.935Z,11.82
2017-12-03T16:33:35.255Z,14.27
2017-12-03T16:36:02.785Z,17.35
2017-12-03T16:38:31.118Z,13.05
2017-12-03T16:40:58.690Z,12.18
2017-12-03T16:43:26.211Z,12.02
2017-12-03T16:45:53.754Z,11.23
2017-12-03T16:48:21.282Z,12.00
2017-12-03T16:50:48.842Z,12.73
2017-12-03T16:53:16.361Z,10.80
2017-12-03T16:55:43.902Z,12.52
2017-12-03T16:58:11.428Z,12.68
2017-12-03T17:00:38.973Z,14.13
2017-12-03T17:03:06.494Z,12.85
2017-12-03T17:05:34.030Z,12.98
2017-12-03T17:08:02.321Z,11.90
2017-12-03T17:10:29.866Z,12.57
2017-12-03T17:12:58.156Z,12.52
2017-12-03T17:15:25.698Z,12.00
2017-12-03T17:17:53.994Z,12.20
2017-12-03T17:20:22.284Z,12.43
2017-12-03T17:22:49.866Z,11.82
2017-12-03T17:25:17.382Z,11.68
2017-12-03T17:27:45.668Z,13.98
2017-12-03T17:30:13.210Z,12.07
2017-12-03T17:32:41.501Z,11.82
2017-12-03T17:35:09.045Z,12.00
2017-12-03T17:37:37.335Z,11.55
2017-12-03T17:40:05.644Z,13.10
2017-12-03T17:42:33.168Z,12.95
2017-12-03T17:45:01.474Z,13.70
2017-12-03T17:47:28.993Z,12.80
2017-12-03T17:49:57.280Z,11.50
2017-12-03T17:52:26.193Z,13.52
2017-12-03T17:54:53.723Z,12.10
2017-12-03T17:57:22.029Z,11.63
2017-12-03T17:59:49.563Z,13.32
2017-12-03T18:02:19.083Z,11.57
2017-12-03T18:05:03.630Z,12.40
2017-12-03T18:07:31.959Z,13.10
2017-12-03T18:09:59.487Z,10.43
2017-12-03T18:12:27.883Z,11.50
2017-12-03T18:14:55.401Z,13.10
2017-12-03T18:17:22.974Z,12.10
2017-12-03T18:19:51.268Z,11.25
2017-12-03T18:22:18.815Z,12.55
2017-12-03T18:24:47.105Z,12.75
2017-12-03T18:27:14.655Z,12.45
2017-12-03T18:29:42.949Z,12.57
2017-12-03T18:32:10.524Z,11.27
2017-12-03T18:34:38.037Z,12.73
2017-12-03T18:37:05.583Z,12.15
2017-12-03T18:39:33.152Z,12.37
2017-12-03T18:42:00.672Z,12.65
2017-12-03T18:44:28.224Z,11.57
2017-12-03T18:46:55.740Z,11.98
2017-12-03T18:49:23.282Z,10.95
2017-12-03T18:51:50.815Z,12.77
2017-12-03T18:54:18.520Z,11.50
2017-12-03T18:56:46.831Z,13.13
2017-12-03T18:59:14.377Z,13.60
2017-12-03T19:01:42.671Z,13.85
2017-12-03T19:04:10.220Z,14.27
2017-12-03T19:06:38.505Z,13.80
2017-12-03T19:09:06.046Z,19.85
2017-12-03T19:11:34.330Z,14.40
2017-12-03T19:14:02.646Z,12.02
2017-12-03T19:16:30.179Z,12.93
2017-12-03T19:18:57.726Z,14.48
2017-12-03T19:21:26.019Z,17.33
2017-12-03T19:23:53.558Z,26.37
2017-12-03T19:26:21.850Z,26.80
2017-12-03T19:28:50.162Z,14.55
2017-12-03T19:31:17.685Z,18.23
2017-12-03T19:33:46.019Z,17.12
2017-12-03T19:36:14.310Z,18.02
2017-12-03T19:38:41.845Z,19.65
2017-12-03T19:41:09.387Z,16.83
2017-12-03T19:43:36.977Z,16.33
2017-12-03T19:46:04.489Z,14.48
2017-12-03T19:48:32.014Z,15.55
2017-12-03T19:50:59.559Z,15.63
2017-12-03T19:53:27.125Z,15.88
2017-12-03T19:55:54.666Z,15.00
2017-12-03T19:58:22.194Z,13.32
2017-12-03T20:00:50.507Z,13.75
2017-12-03T20:03:18.077Z,13.77
2017-12-03T20:05:45.631Z,14.25
2017-12-03T20:08:13.193Z,14.80
2017-12-03T20:10:40.738Z,12.98
2017-12-03T20:13:08.267Z,14.95
2017-12-03T20:15:36.579Z,14.45
2017-12-03T20:18:04.144Z,13.93
2017-12-03T20:20:31.670Z,14.95
2017-12-03T20:22:59.984Z,17.90
2017-12-03T20:25:27.507Z,14.20
2017-12-03T20:27:55.053Z,16.30
2017-12-03T20:30:22.579Z,18.60
2017-12-03T20:32:50.121Z,14.50
2017-12-03T20:35:17.651Z,20.25
2017-12-03T20:37:45.966Z,13.48
2017-12-03T20:40:13.490Z,14.95
2017-12-03T20:42:41.801Z,12.57
2017-12-03T20:45:09.319Z,12.82
2017-12-03T20:47:37.649Z,13.20
2017-12-03T20:50:05.179Z,13.62
2017-12-03T20:52:33.470Z,12.43
2017-12-03T20:55:01.033Z,10.93
2017-12-03T20:57:28.559Z,11.23
2017-12-03T20:59:56.874Z,10.20
2017-12-03T21:02:24.395Z,11.55
2017-12-03T21:04:51.948Z,10.93
2017-12-03T21:07:19.473Z,13.95
2017-12-03T21:09:47.018Z,12.82
2017-12-03T21:12:14.547Z,12.50
2017-12-03T21:14:42.856Z,12.88
2017-12-03T21:17:10.386Z,10.68
2017-12-03T21:19:38.706Z,11.25
2017-12-03T21:22:06.239Z,13.45
2017-12-03T21:24:33.762Z,12.93
2017-12-03T21:27:01.305Z,11.32
2017-12-03T21:29:28.827Z,12.63
2017-12-03T21:31:56.370Z,12.43
2017-12-03T21:34:24.658Z,11.60
2017-12-03T21:36:52.199Z,12.98
2017-12-03T21:39:19.722Z,12.05
2017-12-03T21:41:47.262Z,13.25
2017-12-03T21:44:14.783Z,11.40
2017-12-03T21:46:43.091Z,11.75
2017-12-03T21:49:10.645Z,11.80
2017-12-03T21:51:38.190Z,12.57
2017-12-03T21:54:06.480Z,12.07
2017-12-03T21:56:34.022Z,13.40
2017-12-03T21:59:02.311Z,14.13
2017-12-03T22:01:29.857Z,11.55
2017-12-03T22:03:58.150Z,11.75
2017-12-03T22:06:25.693Z,11.15
2017-12-03T22:08:53.985Z,12.20
2017-12-03T22:11:22.300Z,10.73
2017-12-03T22:13:49.825Z,11.82
2017-12-03T22:16:18.139Z,12.10
2017-12-03T22:18:45.663Z,11.45
2017-12-03T22:21:13.974Z,11.85
2017-12-03T22:23:41.494Z,11.32
2017-12-03T22:26:09.835Z,12.77
2017-12-03T22:28:37.358Z,10.40
2017-12-03T22:31:04.882Z,12.02
2017-12-03T22:33:32.431Z,11.35
2017-12-03T22:35:59.962Z,11.15
2017-12-03T22:38:27.508Z,11.95
2017-12-03T22:40:55.035Z,12.10
2017-12-03T22:43:23.349Z,12.43
2017-12-03T22:45:50.874Z,10.80
2017-12-03T22:48:19.173Z,10.23
2017-12-03T22:50:46.699Z,11.10
2017-12-03T22:53:14.242Z,13.45
2017-12-03T22:55:41.758Z,10.18
2017-12-03T22:58:09.298Z,9.75
2017-12-03T23:00:37.582Z,10.50
2017-12-03T23:03:05.893Z,11.07
2017-12-03T23:05:33.423Z,10.75
2017-12-03T23:08:01.730Z,10.73
2017-12-03T23:10:29.252Z,10.85
2017-12-03T23:12:57.566Z,10.30
2017-12-03T23:15:25.085Z,11.35
2017-12-03T23:17:53.374Z,10.48
2017-12-03T23:20:21.686Z,10.23
2017-12-03T23:22:49.210Z,9.65
2017-12-03T23:25:17.520Z,13.23
2017-12-03T23:27:45.042Z,11.20
2017-12-03T23:30:13.366Z,11.43
2017-12-03T23:32:40.887Z,12.35
2017-12-03T23:35:09.198Z,10.25
2017-12-03T23:37:36.717Z,10.40
2017-12-03T23:40:05.027Z,11.50
2017-12-03T23:42:32.550Z,12.13
2017-12-03T23:45:00.086Z,10.88
2017-12-03T23:47:27.613Z,10.35
2017-12-03T23:49:55.158Z,12.02
2017-12-03T23:52:22.687Z,12.02
2017-12-03T23:54:50.231Z,10.70
2017-12-03T23:57:17.749Z,11.20
2017-12-03T23:59:45.297Z,13.20
